Time;durP1;ratioP1;P1;durP2;ratioP2;P2;SDS_P1;SDS_P2;PMS_P1;PMS_P2;Temp;Humidity;BMP_temperature;BMP_pressure;BME280_temperature;BME280_humidity;BME280_pressure;Samples;Min_cycle;Max_cycle;Signal;HPM_P1;HPM_P2
2023/05/02 00:00:10;;;;;;;9.93;6.60;;;;;;;11.80;98.84;100345.03;5037390;28;20268;-69
2023/05/02 00:02:36;;;;;;;7.72;6.53;;;;;;;11.57;100.00;100349.13;5038300;28;20113;-65
2023/05/02 00:05:01;;;;;;;8.23;6.43;;;;;;;11.46;100.00;100344.91;5036223;28;20053;-64
2023/05/02 00:07:27;;;;;;;7.68;5.78;;;;;;;11.50;100.00;100346.25;5035043;28;20068;-69
2023/05/02 00:09:52;;;;;;;7.70;5.72;;;;;;;11.47;100.00;100341.28;5036870;28;20025;-65
2023/05/02 00:12:18;;;;;;;8.05;6.03;;;;;;;11.51;99.30;100344.44;5035661;28;20065;-65
2023/05/02 00:14:43;;;;;;;7.07;5.70;;;;;;;11.31;98.54;100319.06;5035737;28;20037;-65
2023/05/02 00:17:16;;;;;;;8.88;5.30;;;;;;;11.42;97.74;100348.81;5034235;28;20050;-69
2023/05/02 00:19:41;;;;;;;9.07;6.07;;;;;;;11.39;97.65;100350.94;5032568;28;20040;-69
2023/05/02 00:22:07;;;;;;;8.07;5.90;;;;;;;11.41;97.30;100341.84;5036584;28;20319;-69
2023/05/02 00:24:32;;;;;;;7.78;4.82;;;;;;;11.36;96.66;100343.28;5037554;28;20044;-69
2023/05/02 00:26:58;;;;;;;9.15;4.88;;;;;;;11.56;96.11;100344.00;5037307;28;20045;-68
2023/05/02 00:29:23;;;;;;;8.02;4.40;;;;;;;11.40;94.97;100344.66;5034701;28;20033;-68
2023/05/02 00:31:48;;;;;;;6.78;5.68;;;;;;;11.28;95.84;100346.69;5036042;28;20059;-65
2023/05/02 00:34:14;;;;;;;8.52;5.75;;;;;;;11.40;94.63;100357.91;5036400;28;20046;-69
2023/05/02 00:36:39;;;;;;;6.35;4.80;;;;;;;11.44;94.48;100359.28;5035705;28;20039;-65
2023/05/02 00:39:04;;;;;;;7.10;5.22;;;;;;;11.36;94.25;100352.09;5036462;28;20033;-65
2023/05/02 00:41:30;;;;;;;7.32;5.30;;;;;;;11.32;94.17;100360.50;5036711;28;20365;-68
2023/05/02 00:43:57;;;;;;;7.47;5.50;;;;;;;11.22;93.99;100368.53;5037534;28;20041;-65
2023/05/02 00:46:22;;;;;;;7.50;4.82;;;;;;;11.14;94.28;100365.78;5035052;28;20266;-66
2023/05/02 00:48:48;;;;;;;7.05;5.15;;;;;;;11.31;93.96;100364.97;5036516;28;20030;-69
2023/05/02 00:51:13;;;;;;;7.53;4.70;;;;;;;11.27;93.22;100362.75;5037171;28;20033;-65
2023/05/02 00:53:40;;;;;;;7.80;5.03;;;;;;;11.27;92.74;100370.72;5035711;28;20365;-69
2023/05/02 00:56:06;;;;;;;9.48;4.90;;;;;;;11.41;91.91;100376.31;5036018;28;20346;-69
2023/05/02 00:58:33;;;;;;;7.97;5.45;;;;;;;11.35;91.20;100378.75;5034346;28;20042;-65
2023/05/02 01:01:14;;;;;;;6.90;5.03;;;;;;;11.33;91.87;100375.41;5035465;28;20426;-66
2023/05/02 01:04:04;;;;;;;6.93;4.85;;;;;;;11.33;92.98;100378.06;5037173;28;20311;-69
2023/05/02 01:06:32;;;;;;;9.15;5.47;;;;;;;11.39;91.73;100386.25;5034448;28;20289;-69
2023/05/02 01:09:34;;;;;;;7.60;5.65;;;;;;;11.51;89.48;100389.53;5033765;28;20049;-65
2023/05/02 01:12:02;;;;;;;7.32;5.40;;;;;;;11.25;89.78;100386.78;5024463;28;20287;-65
2023/05/02 01:14:40;;;;;;;6.53;5.35;;;;;;;11.18;89.48;100385.72;5035273;28;20386;-69
2023/05/02 01:17:11;;;;;;;6.55;4.65;;;;;;;11.04;90.01;100391.53;5033257;28;20037;-69
2023/05/02 01:19:40;;;;;;;5.97;4.97;;;;;;;11.01;89.64;100389.16;5035146;28;20223;-65
2023/05/02 01:22:09;;;;;;;7.65;5.38;;;;;;;10.97;89.98;100383.34;5034648;28;20033;-68
2023/05/02 01:24:50;;;;;;;7.65;4.97;;;;;;;11.08;89.05;100385.78;5030873;28;20025;-69
2023/05/02 01:27:40;;;;;;;6.20;5.55;;;;;;;11.19;88.04;100385.56;5031351;28;20052;-65
2023/05/02 01:30:08;;;;;;;7.30;5.47;;;;;;;11.26;88.94;100385.78;5035377;28;20048;-68
2023/05/02 01:32:38;;;;;;;7.35;5.05;;;;;;;11.34;88.75;100391.16;5032068;28;20361;-65
2023/05/02 01:35:05;;;;;;;8.30;4.85;;;;;;;11.45;87.82;100390.97;5034465;28;20044;-65
2023/05/02 01:37:32;;;;;;;7.00;5.95;;;;;;;11.53;86.97;100382.25;5033799;28;20131;-65
2023/05/02 01:40:00;;;;;;;6.90;5.30;;;;;;;11.45;87.15;100390.97;5042548;28;20037;-69
2023/05/02 01:42:26;;;;;;;6.10;4.97;;;;;;;11.47;86.38;100391.66;5035405;28;20104;-69
2023/05/02 01:44:55;;;;;;;7.90;5.22;;;;;;;11.38;86.54;100389.06;5035030;28;20035;-65
2023/05/02 01:47:23;;;;;;;6.30;4.88;;;;;;;11.48;85.95;100385.38;5036091;28;20267;-66
2023/05/02 01:49:48;;;;;;;7.25;4.82;;;;;;;11.41;85.16;100378.97;5035655;28;20034;-69
2023/05/02 01:52:15;;;;;;;7.57;4.80;;;;;;;11.30;84.95;100378.38;5033867;28;20189;-69
2023/05/02 01:54:42;;;;;;;7.57;4.68;;;;;;;11.15;85.43;100381.53;5032162;28;20037;-69
2023/05/02 01:57:11;;;;;;;6.65;4.30;;;;;;;10.90;84.51;100347.81;5034051;28;20223;-65
2023/05/02 01:59:39;;;;;;;6.40;4.47;;;;;;;10.98;85.16;100389.47;5034650;28;20037;-66
2023/05/02 02:02:06;;;;;;;7.28;5.25;;;;;;;11.03;85.19;100387.22;5034381;28;20332;-65
2023/05/02 02:04:35;;;;;;;7.35;5.60;;;;;;;11.02;84.44;100393.50;5033213;28;20314;-69
2023/05/02 02:07:08;;;;;;;7.95;4.97;;;;;;;10.99;85.18;100391.97;5034418;28;20298;-69
2023/05/02 02:09:34;;;;;;;6.53;4.57;;;;;;;11.05;84.28;100391.38;5035119;28;20228;-65
2023/05/02 02:12:11;;;;;;;6.25;4.57;;;;;;;11.11;83.53;100396.06;5039359;28;20044;-65
2023/05/02 02:14:40;;;;;;;7.70;5.20;;;;;;;11.18;83.77;100402.44;5037692;28;20037;-69
2023/05/02 02:17:24;;;;;;;6.78;4.70;;;;;;;11.41;82.36;100397.53;5034235;28;20094;-65
2023/05/02 02:19:53;;;;;;;6.25;4.90;;;;;;;11.51;81.54;100393.03;5038246;28;20115;-68
2023/05/02 02:22:20;;;;;;;5.57;4.75;;;;;;;11.67;80.51;100396.78;5036038;28;20279;-69
2023/05/02 02:24:47;;;;;;;8.68;4.97;;;;;;;11.76;80.18;100402.00;5038082;28;20045;-65
2023/05/02 02:27:13;;;;;;;4.65;4.18;;;;;;;11.73;79.19;100389.06;5038041;28;20278;-65
2023/05/02 02:29:38;;;;;;;6.05;4.40;;;;;;;11.70;79.40;100399.16;5036680;28;20040;-68
2023/05/02 02:32:04;;;;;;;5.47;4.30;;;;;;;11.94;78.71;100399.38;5038609;28;20235;-66
2023/05/02 02:34:30;;;;;;;6.35;4.70;;;;;;;11.98;79.48;100402.53;5039382;28;20100;-65
2023/05/02 02:37:01;;;;;;;6.45;4.35;;;;;;;12.11;77.88;100395.00;5038852;28;20037;-65
2023/05/02 02:39:29;;;;;;;6.90;5.22;;;;;;;12.17;76.27;100399.69;5037430;28;20065;-65
2023/05/02 02:42:20;;;;;;;7.63;4.95;;;;;;;12.29;75.92;100401.09;5036851;28;20033;-65
2023/05/02 02:44:51;;;;;;;6.32;4.82;;;;;;;12.27;75.76;100392.44;5037602;28;20041;-69
2023/05/02 02:47:38;;;;;;;9.13;4.60;;;;;;;12.37;74.49;100394.97;5036573;28;20049;-65
2023/05/02 02:50:20;;;;;;;5.88;4.50;;;;;;;12.54;74.47;100401.25;5036534;28;20328;-69
2023/05/02 02:52:52;;;;;;;8.85;4.30;;;;;;;12.54;73.27;100402.09;5038216;28;20044;-65
2023/05/02 02:55:30;;;;;;;5.70;4.10;;;;;;;12.21;73.34;100410.81;5038829;28;20303;-65
2023/05/02 02:58:02;;;;;;;7.15;4.95;;;;;;;11.59;76.24;100415.28;5036101;28;20037;-68
2023/05/02 03:00:28;;;;;;;7.40;5.70;;;;;;;11.21;77.85;100414.56;5036595;28;20073;-65
2023/05/02 03:02:55;;;;;;;6.15;4.43;;;;;;;11.01;79.44;100420.97;5036688;28;20365;-65
2023/05/02 03:05:22;;;;;;;6.85;4.80;;;;;;;10.86;80.30;100424.13;5037425;28;20045;-68
2023/05/02 03:07:47;;;;;;;6.72;4.32;;;;;;;11.02;79.35;100426.13;5038214;28;20064;-68
2023/05/02 03:10:13;;;;;;;6.30;4.78;;;;;;;11.24;78.35;100430.16;5039206;28;20037;-69
2023/05/02 03:12:42;;;;;;;6.18;4.68;;;;;;;11.28;77.58;100428.06;5036267;28;20278;-69
2023/05/02 03:15:35;;;;;;;7.57;4.97;;;;;;;11.61;77.15;100427.41;5038109;28;20398;-69
2023/05/02 03:18:01;;;;;;;9.27;4.85;;;;;;;11.79;75.97;100432.75;5037962;28;20069;-69
2023/05/02 03:20:26;;;;;;;7.35;4.95;;;;;;;11.86;74.76;100431.16;5037707;28;20267;-69
2023/05/02 03:22:52;;;;;;;7.00;4.57;;;;;;;11.93;75.38;100426.88;5037154;28;20107;-69
2023/05/02 03:25:17;;;;;;;5.28;4.57;;;;;;;12.11;74.51;100429.50;5036256;28;20037;-69
2023/05/02 03:27:43;;;;;;;7.30;4.22;;;;;;;12.17;74.03;100433.38;5038420;28;20315;-65
2023/05/02 03:30:08;;;;;;;6.88;4.95;;;;;;;12.30;73.58;100437.28;5037713;28;20037;-68
2023/05/02 03:32:34;;;;;;;5.63;3.97;;;;;;;12.42;73.05;100443.97;5037293;28;20091;-65
2023/05/02 03:34:59;;;;;;;7.28;4.32;;;;;;;12.52;72.97;100448.38;5036245;28;20044;-65
2023/05/02 03:37:25;;;;;;;6.07;5.38;;;;;;;12.62;72.64;100447.28;5036759;28;20051;-65
2023/05/02 03:39:50;;;;;;;7.25;4.10;;;;;;;12.72;72.26;100453.31;5035831;28;20037;-67
2023/05/02 03:42:15;;;;;;;6.32;4.03;;;;;;;12.83;71.75;100456.69;5036409;28;20223;-69
2023/05/02 03:44:41;;;;;;;12.63;5.28;;;;;;;12.87;70.83;100450.06;5036878;28;20041;-66
2023/05/02 03:47:06;;;;;;;10.50;4.72;;;;;;;12.89;71.13;100450.72;5036525;28;20037;-65
2023/05/02 03:49:35;;;;;;;8.32;4.43;;;;;;;12.88;70.71;100459.69;5038052;28;20041;-69
2023/05/02 03:52:01;;;;;;;7.63;4.88;;;;;;;12.87;70.38;100458.88;5036747;28;20312;-65
2023/05/02 03:54:26;;;;;;;6.88;4.95;;;;;;;12.85;70.72;100468.00;5035355;28;20025;-69
2023/05/02 03:56:55;;;;;;;7.78;5.25;;;;;;;12.67;71.89;100468.91;5035915;28;20037;-68
2023/05/02 03:59:20;;;;;;;9.45;4.90;;;;;;;12.73;73.28;100475.41;5031929;28;20032;-65
2023/05/02 04:01:49;;;;;;;6.28;4.78;;;;;;;12.76;74.15;100475.91;5036357;28;20033;-63
2023/05/02 04:04:15;;;;;;;8.70;5.80;;;;;;;12.70;74.65;100484.53;5036171;28;20168;-63
2023/05/02 04:06:40;;;;;;;9.27;5.35;;;;;;;12.85;74.11;100487.44;5035263;28;20323;-66
2023/05/02 04:09:06;;;;;;;9.55;5.93;;;;;;;12.95;73.14;100487.31;5035240;28;20045;-65
2023/05/02 04:11:32;;;;;;;8.02;5.22;;;;;;;12.99;74.05;100486.00;5038025;28;20353;-65
2023/05/02 04:13:57;;;;;;;9.20;5.25;;;;;;;12.91;72.80;100484.13;5036687;28;20041;-68
2023/05/02 04:16:24;;;;;;;7.00;5.97;;;;;;;12.83;73.30;100488.56;5037335;28;20033;-64
2023/05/02 04:18:49;;;;;;;9.88;6.47;;;;;;;12.70;74.43;100484.53;5036502;28;20052;-66
2023/05/02 04:21:15;;;;;;;10.00;6.78;;;;;;;12.56;75.99;100482.44;5035943;28;20168;-68
2023/05/02 04:23:40;;;;;;;8.38;5.60;;;;;;;12.51;76.10;100483.91;5038103;28;20038;-65
2023/05/02 04:26:06;;;;;;;8.63;5.78;;;;;;;12.44;78.27;100488.97;5037138;28;20034;-69
2023/05/02 04:28:31;;;;;;;7.90;6.00;;;;;;;12.35;77.75;100489.91;5035696;28;20402;-68
2023/05/02 04:30:57;;;;;;;7.93;5.38;;;;;;;12.44;78.95;100491.63;5035200;28;20055;-66
2023/05/02 04:33:23;;;;;;;12.90;6.25;;;;;;;12.60;77.76;100493.59;5037438;28;20049;-66
2023/05/02 04:35:49;;;;;;;10.10;6.00;;;;;;;12.55;77.22;100487.91;5034452;28;20029;-66
2023/05/02 04:38:14;;;;;;;7.95;5.88;;;;;;;12.42;77.81;100497.09;5036536;28;20060;-66
2023/05/02 04:40:40;;;;;;;7.00;5.35;;;;;;;12.42;77.27;100497.09;5034610;28;20331;-65
2023/05/02 04:43:06;;;;;;;9.68;5.50;;;;;;;12.73;74.34;100504.63;5036973;28;20043;-69
2023/05/02 04:45:33;;;;;;;10.88;4.85;;;;;;;12.77;73.44;100498.00;5035450;28;20239;-65
2023/05/02 04:47:58;;;;;;;9.93;5.30;;;;;;;12.95;72.96;100492.63;5037928;28;20030;-66
2023/05/02 04:50:24;;;;;;;8.07;4.68;;;;;;;13.20;70.87;100497.09;5037706;28;20043;-66
2023/05/02 04:52:50;;;;;;;8.15;4.72;;;;;;;13.24;69.64;100502.91;5037935;28;20040;-66
2023/05/02 04:55:15;;;;;;;5.90;5.03;;;;;;;13.43;68.30;100503.47;5036387;28;20021;-63
2023/05/02 04:57:41;;;;;;;5.68;4.63;;;;;;;13.48;66.26;100502.16;5035830;28;20269;-63
2023/05/02 05:00:07;;;;;;;7.90;4.97;;;;;;;13.55;67.38;100501.38;5035453;28;20051;-64
2023/05/02 05:02:32;;;;;;;7.93;5.32;;;;;;;13.84;66.67;100503.59;5035887;28;20079;-63
2023/05/02 05:05:00;;;;;;;6.95;4.70;;;;;;;13.90;68.28;100502.94;5037042;28;20052;-63
2023/05/02 05:07:26;;;;;;;9.25;5.90;;;;;;;13.88;67.56;100496.94;5036201;28;20034;-63
2023/05/02 05:09:51;;;;;;;6.45;4.57;;;;;;;14.05;67.47;100495.13;5035120;28;20048;-66
2023/05/02 05:12:17;;;;;;;5.50;4.03;;;;;;;14.12;66.15;100506.75;5035105;28;20050;-63
2023/05/02 05:14:43;;;;;;;6.32;4.28;;;;;;;14.20;65.61;100503.28;5035276;28;20227;-66
2023/05/02 05:17:08;;;;;;;5.55;4.38;;;;;;;14.38;63.75;100509.25;5034795;28;20200;-64
2023/05/02 05:19:34;;;;;;;6.03;4.10;;;;;;;14.48;63.87;100514.44;5035983;28;20331;-66
2023/05/02 05:21:59;;;;;;;5.57;4.15;;;;;;;14.60;65.39;100510.44;5036591;28;20041;-66
2023/05/02 05:24:25;;;;;;;7.10;4.90;;;;;;;14.74;62.28;100508.91;5034839;28;20025;-63
2023/05/02 05:26:50;;;;;;;4.78;4.03;;;;;;;14.41;60.54;100510.75;5031914;28;20021;-66
2023/05/02 05:29:17;;;;;;;4.90;3.70;;;;;;;14.18;61.14;100524.75;5036083;28;20335;-62
2023/05/02 05:31:43;;;;;;;7.03;3.95;;;;;;;14.32;59.81;100523.25;5034094;28;20040;-63
2023/05/02 05:34:08;;;;;;;6.10;3.92;;;;;;;14.69;59.70;100520.94;5034624;28;20040;-63
2023/05/02 05:36:34;;;;;;;6.13;3.90;;;;;;;14.71;61.13;100519.94;5035998;28;20071;-66
2023/05/02 05:39:00;;;;;;;6.65;3.55;;;;;;;14.88;59.02;100529.56;5036375;28;20044;-62
2023/05/02 05:41:25;;;;;;;4.47;3.63;;;;;;;14.83;58.60;100524.72;5034710;28;20211;-66
2023/05/02 05:43:51;;;;;;;6.15;4.10;;;;;;;14.89;58.40;100526.72;5036223;28;20034;-63
2023/05/02 05:46:16;;;;;;;6.10;3.78;;;;;;;15.17;57.45;100523.63;5035002;28;20331;-66
2023/05/02 05:48:41;;;;;;;7.20;4.55;;;;;;;15.33;55.62;100524.38;5033767;28;20307;-66
2023/05/02 05:51:07;;;;;;;7.07;4.50;;;;;;;15.44;58.18;100527.66;5033488;28;20041;-66
2023/05/02 05:53:33;;;;;;;6.53;4.47;;;;;;;15.29;58.95;100532.91;5036502;28;20052;-64
2023/05/02 05:55:58;;;;;;;7.57;4.10;;;;;;;15.13;57.07;100527.63;5035101;28;20104;-62
2023/05/02 05:58:24;;;;;;;6.32;3.78;;;;;;;15.49;54.93;100536.81;5033476;28;20578;-62
2023/05/02 06:00:49;;;;;;;4.75;3.42;;;;;;;15.51;56.13;100533.97;5036619;28;20044;-63
2023/05/02 06:03:15;;;;;;;4.57;3.17;;;;;;;15.64;55.44;100539.63;5035848;28;20317;-66
2023/05/02 06:05:41;;;;;;;5.38;3.65;;;;;;;15.57;55.07;100541.28;5034156;28;20323;-62
2023/05/02 06:08:06;;;;;;;5.95;3.92;;;;;;;15.56;56.68;100537.78;5036233;28;20029;-66
2023/05/02 06:10:32;;;;;;;5.38;3.50;;;;;;;15.60;53.70;100535.63;5036586;28;20353;-62
2023/05/02 06:12:57;;;;;;;6.80;3.88;;;;;;;15.80;54.39;100538.72;5035366;28;20049;-66
2023/05/02 06:15:23;;;;;;;5.15;3.75;;;;;;;15.70;55.70;100538.09;5033763;28;20139;-66
2023/05/02 06:17:50;;;;;;;4.70;3.40;;;;;;;15.92;55.23;100537.28;5034879;28;20045;-63
2023/05/02 06:20:16;;;;;;;6.18;3.78;;;;;;;16.01;56.96;100544.25;5033015;28;20055;-63
2023/05/02 06:22:41;;;;;;;6.70;3.95;;;;;;;16.35;55.70;100527.78;5033511;28;20057;-66
2023/05/02 06:25:07;;;;;;;7.13;3.83;;;;;;;16.69;53.82;100535.38;5034601;28;20041;-66
2023/05/02 06:27:33;;;;;;;7.22;4.43;;;;;;;16.48;50.85;100524.47;5033965;28;20030;-66
2023/05/02 06:29:58;;;;;;;5.03;3.70;;;;;;;16.61;54.38;100528.19;5029259;28;20053;-63
2023/05/02 06:32:24;;;;;;;7.15;4.82;;;;;;;16.58;52.47;100517.88;5034492;28;20037;-66
2023/05/02 06:34:49;;;;;;;6.60;4.20;;;;;;;16.87;52.57;100521.63;5034043;28;20041;-66
2023/05/02 06:37:15;;;;;;;5.82;3.67;;;;;;;16.88;55.07;100512.59;5037541;28;20098;-63
2023/05/02 06:39:40;;;;;;;5.55;2.97;;;;;;;17.04;50.68;100515.09;5044860;28;20391;-66
2023/05/02 06:42:05;;;;;;;4.57;3.20;;;;;;;16.82;48.55;100518.69;5036874;28;20266;-63
2023/05/02 06:44:31;;;;;;;5.05;3.17;;;;;;;16.90;48.23;100508.72;5035430;28;20033;-66
2023/05/02 06:46:56;;;;;;;3.85;3.20;;;;;;;17.02;47.75;100513.63;5033174;28;20038;-66
2023/05/02 06:49:22;;;;;;;2.97;2.67;;;;;;;17.15;48.76;100500.41;5031479;28;20033;-66
2023/05/02 06:51:48;;;;;;;4.72;3.20;;;;;;;17.37;48.06;100498.63;5034183;28;20947;-63
2023/05/02 06:54:14;;;;;;;6.15;3.17;;;;;;;17.30;46.93;100503.06;5034674;28;20037;-66
2023/05/02 06:56:40;;;;;;;4.38;2.83;;;;;;;17.57;50.01;100502.34;5036683;28;20033;-65
2023/05/02 06:59:06;;;;;;;5.30;2.95;;;;;;;17.61;46.74;100510.84;5037255;28;20040;-65
2023/05/02 07:01:31;;;;;;;3.15;2.47;;;;;;;17.91;46.70;100500.91;5037647;28;20044;-68
2023/05/02 07:03:57;;;;;;;3.58;2.58;;;;;;;18.17;48.03;100504.66;5035890;28;20309;-66
2023/05/02 07:06:23;;;;;;;4.15;3.00;;;;;;;18.04;44.15;100501.03;5037235;28;20351;-66
2023/05/02 07:08:48;;;;;;;3.15;2.55;;;;;;;17.99;46.60;100509.66;5035691;28;20328;-65
2023/05/02 07:11:14;;;;;;;4.55;2.55;;;;;;;17.90;44.41;100507.28;5034731;28;20045;-65
2023/05/02 07:13:39;;;;;;;3.55;3.00;;;;;;;18.06;44.61;100501.69;5037070;28;20033;-66
2023/05/02 07:16:06;;;;;;;4.63;2.60;;;;;;;18.24;43.21;100499.38;5038663;28;20346;-68
2023/05/02 07:18:31;;;;;;;3.92;2.50;;;;;;;18.75;41.78;100493.81;5041236;28;20053;-69
2023/05/02 07:20:57;;;;;;;5.95;2.53;;;;;;;19.24;43.72;100500.88;5038581;28;20172;-65
2023/05/02 07:23:22;;;;;;;2.92;2.35;;;;;;;19.03;39.54;100499.13;5040135;28;20036;-69
2023/05/02 07:25:47;;;;;;;2.20;2.00;;;;;;;19.22;39.66;100489.53;5039731;28;20056;-65
2023/05/02 07:28:13;;;;;;;4.38;1.92;;;;;;;19.28;38.76;100497.59;5040065;28;20077;-69
2023/05/02 07:30:38;;;;;;;3.22;1.88;;;;;;;19.48;39.33;100488.78;5039901;28;20266;-69
2023/05/02 07:33:04;;;;;;;6.30;2.28;;;;;;;19.55;36.25;100495.03;5038879;28;20041;-66
2023/05/02 07:35:30;;;;;;;4.18;1.70;;;;;;;19.59;34.47;100494.44;5037105;28;20045;-66
2023/05/02 07:37:55;;;;;;;2.58;1.60;;;;;;;19.59;36.03;100490.91;5039704;28;20033;-66
2023/05/02 07:40:21;;;;;;;1.70;1.40;;;;;;;19.50;35.96;100492.09;5038060;28;20039;-68
2023/05/02 07:42:47;;;;;;;2.78;1.52;;;;;;;19.14;34.11;100487.84;5037345;28;20306;-65
2023/05/02 07:45:13;;;;;;;2.80;1.70;;;;;;;19.30;36.25;100482.13;5038395;28;20038;-69
2023/05/02 07:47:38;;;;;;;2.15;1.73;;;;;;;19.27;34.65;100485.19;5038952;28;20555;-69
2023/05/02 07:50:05;;;;;;;1.98;1.40;;;;;;;19.68;35.49;100485.16;5039394;28;20033;-69
2023/05/02 07:52:30;;;;;;;2.47;1.60;;;;;;;19.68;33.75;100487.00;5038297;28;20029;-65
2023/05/02 07:54:55;;;;;;;3.20;1.50;;;;;;;19.68;32.83;100487.00;5038328;28;20328;-69
2023/05/02 07:57:22;;;;;;;3.45;2.75;;;;;;;19.73;33.88;100479.16;5037522;28;20033;-64
2023/05/02 07:59:47;;;;;;;1.83;1.40;;;;;;;19.71;33.33;100490.13;5037616;28;20084;-69
2023/05/02 08:02:13;;;;;;;2.80;1.50;;;;;;;19.54;34.99;100471.91;5038136;28;20033;-69
2023/05/02 08:04:39;;;;;;;2.58;1.30;;;;;;;19.85;36.31;100477.56;5039590;28;20025;-69
2023/05/02 08:07:05;;;;;;;2.65;1.40;;;;;;;19.72;32.33;100481.03;5037250;28;20045;-65
2023/05/02 08:09:31;;;;;;;2.42;1.27;;;;;;;19.73;32.98;100476.47;5039030;28;20072;-66
2023/05/02 08:11:56;;;;;;;1.90;1.35;;;;;;;19.81;31.62;100483.56;5037837;28;20033;-69
2023/05/02 08:14:22;;;;;;;1.70;1.48;;;;;;;20.12;32.97;100491.88;5038442;28;20223;-69
2023/05/02 08:16:47;;;;;;;1.55;1.13;;;;;;;19.80;31.90;100480.03;5037824;28;20244;-69
2023/05/02 08:19:14;;;;;;;3.92;1.40;;;;;;;19.88;32.17;100481.72;5044416;28;20071;-69
2023/05/02 08:21:40;;;;;;;2.97;1.27;;;;;;;20.02;32.98;100465.38;5038442;28;20072;-69
2023/05/02 08:24:05;;;;;;;2.75;1.55;;;;;;;19.99;32.34;100481.09;5038694;28;20288;-66
2023/05/02 08:26:31;;;;;;;1.38;1.20;;;;;;;19.95;30.36;100472.63;5038331;28;20335;-65
2023/05/02 08:28:56;;;;;;;1.83;1.48;;;;;;;20.03;34.19;100471.59;5037690;28;20279;-69
2023/05/02 08:31:21;;;;;;;2.67;1.52;;;;;;;20.04;31.99;100467.88;5036697;28;20037;-69
2023/05/02 08:33:47;;;;;;;2.42;1.23;;;;;;;20.15;33.86;100474.50;5038767;28;20045;-66
2023/05/02 08:36:14;;;;;;;2.38;1.45;;;;;;;19.93;31.04;100463.94;5036138;28;20037;-69
2023/05/02 08:38:40;;;;;;;2.15;1.40;;;;;;;20.28;33.14;100469.09;5039498;28;20029;-69
2023/05/02 08:41:13;;;;;;;1.92;1.40;;;;;;;20.10;34.93;100458.97;5037262;28;20342;-65
2023/05/02 08:43:39;;;;;;;2.33;1.70;;;;;;;20.33;35.54;100464.75;5041077;28;20040;-65
2023/05/02 08:46:09;;;;;;;3.40;1.52;;;;;;;20.23;32.25;100458.16;5037458;28;20060;-66
2023/05/02 08:48:39;;;;;;;1.77;1.23;;;;;;;20.20;32.93;100464.78;5040732;28;20060;-66
2023/05/02 08:51:11;;;;;;;3.08;1.35;;;;;;;20.32;35.09;100448.84;5035961;28;20056;-67
2023/05/02 08:53:37;;;;;;;2.25;1.60;;;;;;;20.24;34.64;100449.88;5039379;28;20072;-65
2023/05/02 08:56:03;;;;;;;2.65;1.40;;;;;;;20.28;34.96;100444.91;5037410;28;20036;-66
2023/05/02 08:58:31;;;;;;;1.70;1.60;;;;;;;20.15;33.28;100459.19;5038997;28;20266;-65
2023/05/02 09:01:01;;;;;;;0.93;0.90;;;;;;;20.05;31.27;100464.16;5037227;28;20041;-66
2023/05/02 09:03:33;;;;;;;3.97;1.15;;;;;;;20.11;31.46;100459.81;5039423;28;20280;-66
2023/05/02 09:06:03;;;;;;;3.08;0.98;;;;;;;20.04;31.67;100447.19;5037130;28;20037;-66
2023/05/02 09:08:28;;;;;;;3.65;1.98;;;;;;;20.21;32.98;100447.59;5043165;28;20111;-66
2023/05/02 09:10:54;;;;;;;1.92;1.20;;;;;;;20.26;30.73;100441.59;5042932;28;20047;-66
2023/05/02 09:13:45;;;;;;;3.10;1.40;;;;;;;20.27;30.47;100441.38;5036685;28;20254;-65
2023/05/02 09:16:15;;;;;;;1.83;1.30;;;;;;;20.35;31.33;100448.41;5037051;28;20036;-66
2023/05/02 09:18:45;;;;;;;2.45;1.30;;;;;;;20.27;32.03;100444.06;5037992;28;20041;-66
2023/05/02 09:21:16;;;;;;;2.00;1.15;;;;;;;20.23;32.36;100437.47;5038350;28;20060;-65
2023/05/02 09:23:50;;;;;;;1.50;1.40;;;;;;;20.15;32.77;100428.78;5037428;28;20064;-66
2023/05/02 09:26:22;;;;;;;2.40;1.25;;;;;;;20.09;32.45;100449.25;5037140;28;20030;-66
2023/05/02 09:28:50;;;;;;;2.60;1.70;;;;;;;19.91;32.14;100431.06;5037446;28;20223;-66
2023/05/02 09:31:29;;;;;;;3.40;1.52;;;;;;;19.89;32.05;100435.00;5036675;28;20452;-65
2023/05/02 09:33:55;;;;;;;4.40;1.50;;;;;;;19.98;34.50;100426.50;5035702;28;20119;-65
2023/05/02 09:36:21;;;;;;;1.52;1.42;;;;;;;19.96;33.19;100428.59;5036376;28;20032;-65
2023/05/02 09:38:49;;;;;;;3.00;1.50;;;;;;;20.07;36.39;100413.69;5036357;28;20132;-66
2023/05/02 09:41:16;;;;;;;2.28;1.90;;;;;;;20.27;35.03;100413.66;5034830;28;20090;-65
2023/05/02 09:43:42;;;;;;;2.90;1.58;;;;;;;20.17;33.60;100424.84;5033007;28;20030;-65
2023/05/02 09:46:10;;;;;;;3.28;0.90;;;;;;;19.92;33.50;100410.38;5035967;28;20075;-66
2023/05/02 09:48:51;;;;;;;1.95;1.23;;;;;;;20.10;32.25;100405.22;5033725;28;20029;-66
2023/05/02 09:51:18;;;;;;;3.05;1.35;;;;;;;20.01;31.97;100396.53;5033363;28;20025;-66
2023/05/02 09:53:44;;;;;;;4.07;1.15;;;;;;;20.09;35.11;100406.25;5035371;28;20060;-66
2023/05/02 09:56:09;;;;;;;2.53;1.63;;;;;;;19.93;33.40;100425.47;5033299;28;20102;-66
2023/05/02 09:58:35;;;;;;;2.47;1.13;;;;;;;19.87;31.82;100392.19;5032559;28;20256;-65
2023/05/02 10:01:01;;;;;;;2.42;1.30;;;;;;;20.04;33.75;100403.34;5034642;28;20055;-66
2023/05/02 10:03:28;;;;;;;2.83;1.40;;;;;;;20.09;33.70;100388.25;5034116;28;20254;-65
2023/05/02 10:05:54;;;;;;;3.85;1.25;;;;;;;20.04;32.25;100398.81;5033907;28;20033;-65
2023/05/02 10:08:26;;;;;;;2.85;1.58;;;;;;;20.00;32.61;100397.56;5034471;28;20033;-66
2023/05/02 10:10:57;;;;;;;2.63;1.15;;;;;;;19.94;33.39;100376.88;5034755;28;20040;-65
2023/05/02 10:13:26;;;;;;;2.97;1.33;;;;;;;20.17;33.19;100378.31;5033049;28;20037;-66
2023/05/02 10:16:00;;;;;;;1.45;0.93;;;;;;;20.02;30.79;100378.53;5034346;28;20038;-66
2023/05/02 10:18:49;;;;;;;1.40;0.85;;;;;;;20.23;31.97;100382.84;5032954;28;20239;-66
2023/05/02 10:21:28;;;;;;;2.33;1.08;;;;;;;20.38;31.08;100373.50;5034817;28;20050;-66
2023/05/02 10:23:54;;;;;;;4.07;1.10;;;;;;;20.29;34.29;100369.41;5033441;28;20407;-65
2023/05/02 10:26:21;;;;;;;1.27;1.00;;;;;;;20.37;32.64;100379.94;5034546;28;20029;-65
2023/05/02 10:28:47;;;;;;;1.13;1.00;;;;;;;20.36;32.59;100375.59;5033600;28;20041;-66
2023/05/02 10:31:14;;;;;;;1.52;0.90;;;;;;;20.23;30.87;100354.09;5038177;28;20043;-66
2023/05/02 10:33:39;;;;;;;2.08;0.70;;;;;;;20.24;31.10;100360.31;5037893;28;20093;-65
2023/05/02 10:36:08;;;;;;;2.03;1.30;;;;;;;20.63;33.14;100335.19;5039385;28;20059;-69
2023/05/02 10:38:35;;;;;;;3.38;1.40;;;;;;;20.62;33.11;100341.59;5038214;28;20051;-66
2023/05/02 10:41:07;;;;;;;1.88;1.00;;;;;;;20.80;31.03;100336.34;5036534;28;20030;-65
2023/05/02 10:43:35;;;;;;;1.63;0.80;;;;;;;20.53;30.84;100342.88;5037069;28;20355;-66
2023/05/02 10:46:02;;;;;;;4.97;1.27;;;;;;;20.46;30.23;100344.75;5038547;28;20262;-69
2023/05/02 10:48:28;;;;;;;1.33;0.93;;;;;;;20.54;29.42;100345.34;5039596;28;20272;-69
2023/05/02 10:51:00;;;;;;;1.83;1.33;;;;;;;20.60;30.96;100359.81;5037890;28;20025;-69
2023/05/02 10:53:46;;;;;;;1.92;0.95;;;;;;;20.61;30.99;100334.56;5037035;28;20277;-66
2023/05/02 10:56:20;;;;;;;2.17;1.60;;;;;;;20.85;33.56;100331.19;5037038;28;20029;-66
2023/05/02 10:58:47;;;;;;;;;;;;;;;20.80;30.92;100333.66;5041259;28;20052;-65
2023/05/02 11:01:28;;;;;;;1.35;0.90;;;;;;;20.77;29.38;100331.41;5037361;28;20015;-66
2023/05/02 11:04:00;;;;;;;1.08;0.98;;;;;;;20.76;31.13;100332.44;5037410;28;20041;-66
2023/05/02 11:06:27;;;;;;;1.20;1.00;;;;;;;20.90;29.96;100354.75;5037184;28;20109;-66
2023/05/02 11:09:17;;;;;;;5.63;1.20;;;;;;;20.96;31.66;100327.81;5038028;28;20137;-66
2023/05/02 11:11:44;;;;;;;1.38;0.85;;;;;;;20.99;29.42;100334.63;5037479;28;20317;-65
2023/05/02 11:14:10;;;;;;;0.60;0.60;;;;;;;20.79;27.69;100331.19;5035791;28;20135;-65
2023/05/02 11:17:04;;;;;;;1.17;0.75;;;;;;;20.87;28.73;100315.63;5037100;28;20124;-66
2023/05/02 11:19:55;;;;;;;1.03;0.93;;;;;;;20.94;28.94;100313.72;5037923;28;20037;-66
2023/05/02 11:22:22;;;;;;;0.95;0.70;;;;;;;21.07;28.68;100323.59;5035202;28;20655;-65
2023/05/02 11:24:49;;;;;;;2.20;1.08;;;;;;;20.99;27.81;100307.69;5036724;28;20483;-65
2023/05/02 11:27:30;;;;;;;1.95;1.10;;;;;;;21.15;30.07;100325.22;5036782;28;20076;-65